sensor_id;sensor_type;location;lat;lon;timestamp;pressure;altitude;pressure_sealevel;temperature;humidity
34297;BME280;20564;42.902;25.336;2023-01-30T00:01:35;97550.16;;;0.17;100.00
34297;BME280;20564;42.902;25.336;2023-01-30T00:04:04;97543.31;;;0.16;100.00
34297;BME280;20564;42.902;25.336;2023-01-30T00:06:42;97548.63;;;0.13;100.00
34297;BME280;20564;42.902;25.336;2023-01-30T00:09:13;97552.75;;;0.17;100.00
34297;BME280;20564;42.902;25.336;2023-01-30T00:11:40;97540.22;;;0.08;100.00
34297;BME280;20564;42.902;25.336;2023-01-30T00:14:11;97551.28;;;0.12;100.00
34297;BME280;20564;42.902;25.336;2023-01-30T00:16:38;97542.81;;;0.08;100.00
34297;BME280;20564;42.902;25.336;2023-01-30T00:19:09;97552.13;;;0.12;100.00
34297;BME280;20564;42.902;25.336;2023-01-30T00:21:42;97547.78;;;0.13;100.00
34297;BME280;20564;42.902;25.336;2023-01-30T00:24:15;97540.16;;;0.10;100.00
34297;BME280;20564;42.902;25.336;2023-01-30T00:26:49;97538.16;;;0.16;100.00
34297;BME280;20564;42.902;25.336;2023-01-30T00:29:19;97541.34;;;0.21;100.00
34297;BME280;20564;42.902;25.336;2023-01-30T00:31:49;97536.34;;;0.18;100.00
34297;BME280;20564;42.902;25.336;2023-01-30T00:34:31;97532.53;;;0.26;100.00
34297;BME280;20564;42.902;25.336;2023-01-30T00:37:05;97540.38;;;0.24;100.00
34297;BME280;20564;42.902;25.336;2023-01-30T00:39:37;97537.72;;;0.26;100.00
34297;BME280;20564;42.902;25.336;2023-01-30T00:42:44;97520.81;;;0.18;100.00
34297;BME280;20564;42.902;25.336;2023-01-30T00:45:53;97533.47;;;0.24;100.00
34297;BME280;20564;42.902;25.336;2023-01-30T00:48:42;97525.00;;;0.21;100.00
34297;BME280;20564;42.902;25.336;2023-01-30T00:51:15;97525.41;;;0.12;100.00
34297;BME280;20564;42.902;25.336;2023-01-30T00:53:42;97532.00;;;0.19;100.00
34297;BME280;20564;42.902;25.336;2023-01-30T00:59:54;97503.16;;;0.08;100.00
34297;BME280;20564;42.902;25.336;2023-01-30T01:05:58;97544.47;;;0.30;100.00
34297;BME280;20564;42.902;25.336;2023-01-30T01:08:59;97516.38;;;0.20;100.00
34297;BME280;20564;42.902;25.336;2023-01-30T01:11:40;97515.47;;;0.21;100.00
34297;BME280;20564;42.902;25.336;2023-01-30T01:14:22;97537.19;;;0.38;100.00
34297;BME280;20564;42.902;25.336;2023-01-30T01:17:28;97521.34;;;0.25;100.00
34297;BME280;20564;42.902;25.336;2023-01-30T01:20:10;97522.72;;;0.34;100.00
34297;BME280;20564;42.902;25.336;2023-01-30T01:23:00;97524.16;;;0.39;100.00
34297;BME280;20564;42.902;25.336;2023-01-30T01:25:32;97518.16;;;0.39;100.00
34297;BME280;20564;42.902;25.336;2023-01-30T01:28:08;97518.00;;;0.42;100.00
34297;BME280;20564;42.902;25.336;2023-01-30T01:30:42;97513.63;;;0.44;100.00
34297;BME280;20564;42.902;25.336;2023-01-30T01:33:20;97513.75;;;0.41;100.00
34297;BME280;20564;42.902;25.336;2023-01-30T01:35:48;97506.00;;;0.41;100.00
34297;BME280;20564;42.902;25.336;2023-01-30T01:38:19;97497.38;;;0.40;100.00
34297;BME280;20564;42.902;25.336;2023-01-30T01:40:47;97502.34;;;0.45;100.00
34297;BME280;20564;42.902;25.336;2023-01-30T01:47:17;97496.72;;;0.35;100.00
34297;BME280;20564;42.902;25.336;2023-01-30T01:50:03;97496.59;;;0.38;100.00
34297;BME280;20564;42.902;25.336;2023-01-30T01:52:56;97490.72;;;0.35;100.00
34297;BME280;20564;42.902;25.336;2023-01-30T01:55:33;97495.47;;;0.25;100.00
34297;BME280;20564;42.902;25.336;2023-01-30T01:59:12;97493.56;;;0.29;100.00
34297;BME280;20564;42.902;25.336;2023-01-30T02:01:27;97482.59;;;0.23;100.00
34297;BME280;20564;42.902;25.336;2023-01-30T02:04:02;97483.56;;;0.21;100.00
34297;BME280;20564;42.902;25.336;2023-01-30T02:07:03;97488.75;;;0.21;100.00
34297;BME280;20564;42.902;25.336;2023-01-30T02:09:37;97486.25;;;0.19;100.00
34297;BME280;20564;42.902;25.336;2023-01-30T02:12:13;97473.53;;;0.15;100.00
34297;BME280;20564;42.902;25.336;2023-01-30T02:15:03;97471.75;;;0.15;100.00
34297;BME280;20564;42.902;25.336;2023-01-30T02:17:51;97480.75;;;0.07;100.00
34297;BME280;20564;42.902;25.336;2023-01-30T02:29:29;97465.44;;;0.02;100.00
34297;BME280;20564;42.902;25.336;2023-01-30T02:32:12;97466.75;;;-0.08;100.00
34297;BME280;20564;42.902;25.336;2023-01-30T02:38:28;97453.91;;;-0.10;100.00
34297;BME280;20564;42.902;25.336;2023-01-30T02:48:05;97453.47;;;-0.19;100.00
34297;BME280;20564;42.902;25.336;2023-01-30T02:51:12;97445.59;;;-0.37;100.00
34297;BME280;20564;42.902;25.336;2023-01-30T02:53:59;97451.34;;;-0.30;100.00
34297;BME280;20564;42.902;25.336;2023-01-30T02:57:14;97456.19;;;-0.22;100.00
34297;BME280;20564;42.902;25.336;2023-01-30T03:00:00;97469.19;;;-0.24;100.00
34297;BME280;20564;42.902;25.336;2023-01-30T03:09:11;97464.03;;;-0.24;100.00
34297;BME280;20564;42.902;25.336;2023-01-30T03:17:59;97467.19;;;-0.17;100.00
34297;BME280;20564;42.902;25.336;2023-01-30T03:20:40;97455.91;;;-0.16;100.00
34297;BME280;20564;42.902;25.336;2023-01-30T03:23:45;97456.69;;;-0.14;100.00
34297;BME280;20564;42.902;25.336;2023-01-30T03:26:43;97460.88;;;-0.12;100.00
34297;BME280;20564;42.902;25.336;2023-01-30T03:29:43;97434.03;;;-0.28;100.00
34297;BME280;20564;42.902;25.336;2023-01-30T03:32:33;97454.75;;;-0.09;100.00
34297;BME280;20564;42.902;25.336;2023-01-30T03:35:18;97460.50;;;-0.03;100.00
34297;BME280;20564;42.902;25.336;2023-01-30T03:41:14;97461.94;;;0.03;100.00
34297;BME280;20564;42.902;25.336;2023-01-30T03:43:52;97467.81;;;0.07;100.00
34297;BME280;20564;42.902;25.336;2023-01-30T03:47:03;97464.81;;;-0.03;100.00
34297;BME280;20564;42.902;25.336;2023-01-30T03:49:56;97466.63;;;-0.05;100.00
34297;BME280;20564;42.902;25.336;2023-01-30T03:52:53;97414.56;;;-0.37;100.00
34297;BME280;20564;42.902;25.336;2023-01-30T03:55:59;97447.38;;;-0.18;100.00
34297;BME280;20564;42.902;25.336;2023-01-30T03:59:17;97468.47;;;-0.07;100.00
34297;BME280;20564;42.902;25.336;2023-01-30T04:02:03;97464.25;;;-0.10;100.00
34297;BME280;20564;42.902;25.336;2023-01-30T04:05:08;97460.88;;;-0.12;100.00
34297;BME280;20564;42.902;25.336;2023-01-30T04:07:41;97454.94;;;-0.14;100.00
34297;BME280;20564;42.902;25.336;2023-01-30T04:10:09;97458.38;;;-0.13;100.00
34297;BME280;20564;42.902;25.336;2023-01-30T04:12:37;97443.13;;;-0.19;100.00
34297;BME280;20564;42.902;25.336;2023-01-30T04:15:48;97459.00;;;-0.08;100.00
34297;BME280;20564;42.902;25.336;2023-01-30T04:18:16;97446.63;;;-0.20;100.00
34297;BME280;20564;42.902;25.336;2023-01-30T04:20:51;97452.03;;;-0.27;100.00
34297;BME280;20564;42.902;25.336;2023-01-30T04:23:28;97460.72;;;-0.28;100.00
34297;BME280;20564;42.902;25.336;2023-01-30T04:26:05;97441.13;;;-0.33;100.00
34297;BME280;20564;42.902;25.336;2023-01-30T04:28:33;97455.41;;;-0.25;100.00
34297;BME280;20564;42.902;25.336;2023-01-30T04:31:05;97455.28;;;-0.21;100.00
34297;BME280;20564;42.902;25.336;2023-01-30T04:33:33;97457.88;;;-0.21;100.00
34297;BME280;20564;42.902;25.336;2023-01-30T04:36:05;97452.72;;;-0.21;100.00
34297;BME280;20564;42.902;25.336;2023-01-30T04:38:46;97449.81;;;-0.15;100.00
34297;BME280;20564;42.902;25.336;2023-01-30T04:41:20;97444.03;;;-0.20;100.00
34297;BME280;20564;42.902;25.336;2023-01-30T04:44:12;97448.41;;;-0.22;100.00
34297;BME280;20564;42.902;25.336;2023-01-30T04:46:42;97447.53;;;-0.21;100.00
34297;BME280;20564;42.902;25.336;2023-01-30T04:49:17;97448.16;;;-0.16;100.00
34297;BME280;20564;42.902;25.336;2023-01-30T04:52:00;97442.84;;;-0.13;100.00
34297;BME280;20564;42.902;25.336;2023-01-30T04:54:27;97445.44;;;-0.13;100.00
34297;BME280;20564;42.902;25.336;2023-01-30T04:56:57;97442.84;;;-0.13;100.00
34297;BME280;20564;42.902;25.336;2023-01-30T04:59:30;97435.00;;;-0.12;100.00
34297;BME280;20564;42.902;25.336;2023-01-30T05:05:21;97441.59;;;-0.05;100.00
34297;BME280;20564;42.902;25.336;2023-01-30T05:08:10;97435.78;;;-0.10;100.00
34297;BME280;20564;42.902;25.336;2023-01-30T05:10:56;97430.59;;;-0.29;100.00
34297;BME280;20564;42.902;25.336;2023-01-30T05:13:38;97437.31;;;-0.25;100.00
34297;BME280;20564;42.902;25.336;2023-01-30T05:16:29;97437.22;;;-0.23;100.00
34297;BME280;20564;42.902;25.336;2023-01-30T05:19:02;97430.88;;;-0.16;100.00
34297;BME280;20564;42.902;25.336;2023-01-30T05:21:36;97438.72;;;-0.17;100.00
34297;BME280;20564;42.902;25.336;2023-01-30T05:24:05;97448.16;;;-0.16;100.00
34297;BME280;20564;42.902;25.336;2023-01-30T05:26:32;97441.50;;;-0.22;100.00
34297;BME280;20564;42.902;25.336;2023-01-30T05:28:58;97449.19;;;-0.20;100.00
34297;BME280;20564;42.902;25.336;2023-01-30T05:31:26;97441.44;;;-0.20;100.00
34297;BME280;20564;42.902;25.336;2023-01-30T05:33:57;97453.47;;;-0.19;100.00
34297;BME280;20564;42.902;25.336;2023-01-30T05:36:24;97447.38;;;-0.18;100.00
34297;BME280;20564;42.902;25.336;2023-01-30T05:38:51;97435.44;;;-0.21;100.00
34297;BME280;20564;42.902;25.336;2023-01-30T05:41:18;97427.94;;;-0.27;100.00
34297;BME280;20564;42.902;25.336;2023-01-30T05:43:49;97430.66;;;-0.30;100.00
34297;BME280;20564;42.902;25.336;2023-01-30T05:46:16;97427.19;;;-0.29;100.00
34297;BME280;20564;42.902;25.336;2023-01-30T05:48:43;97440.16;;;-0.31;100.00
34297;BME280;20564;42.902;25.336;2023-01-30T05:51:15;97432.88;;;-0.41;100.00
34297;BME280;20564;42.902;25.336;2023-01-30T05:53:42;97447.22;;;-0.34;100.00
34297;BME280;20564;42.902;25.336;2023-01-30T05:56:09;97446.75;;;-0.44;100.00
34297;BME280;20564;42.902;25.336;2023-01-30T05:58:36;97445.81;;;-0.41;100.00
34297;BME280;20564;42.902;25.336;2023-01-30T06:01:05;97432.47;;;-0.32;100.00
34297;BME280;20564;42.902;25.336;2023-01-30T06:03:32;97442.53;;;-0.26;100.00
34297;BME280;20564;42.902;25.336;2023-01-30T06:06:00;97434.72;;;-0.25;100.00
34297;BME280;20564;42.902;25.336;2023-01-30T06:08:28;97438.78;;;-0.19;100.00
34297;BME280;20564;42.902;25.336;2023-01-30T06:11:02;97438.78;;;-0.19;100.00
34297;BME280;20564;42.902;25.336;2023-01-30T06:13:30;97441.19;;;-0.14;100.00
34297;BME280;20564;42.902;25.336;2023-01-30T06:15:57;97433.25;;;-0.11;100.00
34297;BME280;20564;42.902;25.336;2023-01-30T06:18:23;97437.13;;;-0.01;100.00
34297;BME280;20564;42.902;25.336;2023-01-30T06:20:51;97440.06;;;0.10;100.00
34297;BME280;20564;42.902;25.336;2023-01-30T06:23:19;97441.91;;;0.08;100.00
34297;BME280;20564;42.902;25.336;2023-01-30T06:25:47;97452.50;;;0.02;100.00
34297;BME280;20564;42.902;25.336;2023-01-30T06:28:16;97436.97;;;0.02;100.00
34297;BME280;20564;42.902;25.336;2023-01-30T06:30:43;97448.75;;;0.09;100.00
34297;BME280;20564;42.902;25.336;2023-01-30T06:33:11;97444.13;;;0.16;100.00
34297;BME280;20564;42.902;25.336;2023-01-30T06:35:39;97449.88;;;0.22;100.00
34297;BME280;20564;42.902;25.336;2023-01-30T06:38:11;97444.63;;;0.24;100.00
34297;BME280;20564;42.902;25.336;2023-01-30T06:40:43;97451.53;;;0.23;100.00
34297;BME280;20564;42.902;25.336;2023-01-30T06:43:12;97446.50;;;0.20;100.00
34297;BME280;20564;42.902;25.336;2023-01-30T06:45:39;97446.22;;;0.08;100.00
34297;BME280;20564;42.902;25.336;2023-01-30T06:48:06;97452.88;;;0.13;100.00
34297;BME280;20564;42.902;25.336;2023-01-30T06:50:34;97457.56;;;0.05;100.00
34297;BME280;20564;42.902;25.336;2023-01-30T06:53:06;97442.44;;;-0.04;100.00
34297;BME280;20564;42.902;25.336;2023-01-30T06:55:34;97451.91;;;-0.23;100.00
34297;BME280;20564;42.902;25.336;2023-01-30T06:58:05;97451.78;;;-0.20;100.00
34297;BME280;20564;42.902;25.336;2023-01-30T07:00:33;97451.38;;;-0.11;100.00
34297;BME280;20564;42.902;25.336;2023-01-30T07:03:01;97448.88;;;-0.13;100.00
34297;BME280;20564;42.902;25.336;2023-01-30T07:05:28;97447.75;;;-0.07;100.00
34297;BME280;20564;42.902;25.336;2023-01-30T07:07:56;97444.88;;;-0.01;100.00
34297;BME280;20564;42.902;25.336;2023-01-30T07:10:23;97453.44;;;0.01;100.00
34297;BME280;20564;42.902;25.336;2023-01-30T07:12:51;97445.19;;;-0.07;100.00
34297;BME280;20564;42.902;25.336;2023-01-30T07:15:19;97445.81;;;-0.02;100.00
34297;BME280;20564;42.902;25.336;2023-01-30T07:17:47;97458.59;;;0.01;100.00
34297;BME280;20564;42.902;25.336;2023-01-30T07:20:14;97449.91;;;0.02;100.00
34297;BME280;20564;42.902;25.336;2023-01-30T07:22:41;97452.81;;;0.15;100.00
34297;BME280;20564;42.902;25.336;2023-01-30T07:25:09;97452.25;;;0.27;100.00
34297;BME280;20564;42.902;25.336;2023-01-30T07:27:36;97445.59;;;0.21;100.00
34297;BME280;20564;42.902;25.336;2023-01-30T07:30:04;97448.59;;;0.31;100.00
34297;BME280;20564;42.902;25.336;2023-01-30T07:32:31;97446.09;;;0.30;100.00
34297;BME280;20564;42.902;25.336;2023-01-30T07:34:58;97448.59;;;0.31;100.00
34297;BME280;20564;42.902;25.336;2023-01-30T07:37:26;97433.91;;;0.32;100.00
34297;BME280;20564;42.902;25.336;2023-01-30T07:39:53;97428.31;;;0.41;100.00
34297;BME280;20564;42.902;25.336;2023-01-30T07:42:21;97435.41;;;0.55;100.00
34297;BME280;20564;42.902;25.336;2023-01-30T07:44:48;97432.75;;;0.56;100.00
34297;BME280;20564;42.902;25.336;2023-01-30T07:47:16;97432.63;;;0.59;100.00
34297;BME280;20564;42.902;25.336;2023-01-30T07:49:46;97427.44;;;0.59;100.00
34297;BME280;20564;42.902;25.336;2023-01-30T07:52:13;97431.47;;;0.65;100.00
34297;BME280;20564;42.902;25.336;2023-01-30T07:54:40;97425.16;;;0.70;100.00
34297;BME280;20564;42.902;25.336;2023-01-30T07:57:08;97425.31;;;0.67;100.00
34297;BME280;20564;42.902;25.336;2023-01-30T07:59:35;97430.03;;;0.77;100.00
34297;BME280;20564;42.902;25.336;2023-01-30T08:02:03;97432.72;;;0.75;100.00
34297;BME280;20564;42.902;25.336;2023-01-30T08:04:30;97432.63;;;0.77;100.00
34297;BME280;20564;42.902;25.336;2023-01-30T08:06:57;97426.84;;;0.71;100.00
34297;BME280;20564;42.902;25.336;2023-01-30T08:09:25;97431.78;;;0.76;100.00
34297;BME280;20564;42.902;25.336;2023-01-30T08:11:52;97426.56;;;0.78;100.00
34297;BME280;20564;42.902;25.336;2023-01-30T08:14:20;97438.59;;;0.79;100.00
34297;BME280;20564;42.902;25.336;2023-01-30T08:16:47;97429.59;;;0.86;100.00
34297;BME280;20564;42.902;25.336;2023-01-30T08:19:15;97436.09;;;0.94;100.00
34297;BME280;20564;42.902;25.336;2023-01-30T08:21:41;97435.78;;;1.01;100.00
34297;BME280;20564;42.902;25.336;2023-01-30T08:24:08;97427.78;;;1.05;100.00
34297;BME280;20564;42.902;25.336;2023-01-30T08:26:35;97420.00;;;1.05;100.00
34297;BME280;20564;42.902;25.336;2023-01-30T08:29:02;97427.34;;;1.14;100.00
34297;BME280;20564;42.902;25.336;2023-01-30T08:31:29;97423.09;;;1.13;100.00
34297;BME280;20564;42.902;25.336;2023-01-30T08:33:56;97416.81;;;1.00;100.00
34297;BME280;20564;42.902;25.336;2023-01-30T08:36:23;97423.66;;;1.01;100.00
34297;BME280;20564;42.902;25.336;2023-01-30T08:38:49;97413.00;;;1.07;100.00
34297;BME280;20564;42.902;25.336;2023-01-30T08:41:16;97411.63;;;1.00;100.00
34297;BME280;20564;42.902;25.336;2023-01-30T08:43:43;97425.13;;;1.07;100.00
34297;BME280;20564;42.902;25.336;2023-01-30T08:46:10;97423.28;;;1.09;100.00
34297;BME280;20564;42.902;25.336;2023-01-30T08:48:37;97413.16;;;1.04;100.00
34297;BME280;20564;42.902;25.336;2023-01-30T08:51:15;97419.56;;;1.14;100.00
34297;BME280;20564;42.902;25.336;2023-01-30T08:53:42;97409.06;;;1.17;100.00
34297;BME280;20564;42.902;25.336;2023-01-30T08:56:09;97413.91;;;1.24;100.00
34297;BME280;20564;42.902;25.336;2023-01-30T08:58:36;97412.09;;;1.08;99.05
34297;BME280;20564;42.902;25.336;2023-01-30T09:01:06;97401.56;;;0.94;98.55
34297;BME280;20564;42.902;25.336;2023-01-30T09:03:34;97397.44;;;0.90;99.71
34297;BME280;20564;42.902;25.336;2023-01-30T09:06:01;97407.81;;;1.07;100.00
34297;BME280;20564;42.902;25.336;2023-01-30T09:08:28;97397.47;;;1.07;99.72
34297;BME280;20564;42.902;25.336;2023-01-30T09:10:59;97398.16;;;1.11;100.00
34297;BME280;20564;42.902;25.336;2023-01-30T09:13:27;97396.97;;;1.16;99.98
34297;BME280;20564;42.902;25.336;2023-01-30T09:15:54;97388.34;;;1.33;100.00
34297;BME280;20564;42.902;25.336;2023-01-30T09:18:21;97391.78;;;1.34;99.85
34297;BME280;20564;42.902;25.336;2023-01-30T09:20:48;97392.88;;;1.30;98.78
34297;BME280;20564;42.902;25.336;2023-01-30T09:23:18;97389.19;;;1.34;98.47
34297;BME280;20564;42.902;25.336;2023-01-30T09:25:46;97388.28;;;1.35;98.48
34297;BME280;20564;42.902;25.336;2023-01-30T09:28:13;97384.94;;;1.33;98.62
34297;BME280;20564;42.902;25.336;2023-01-30T09:30:40;97374.28;;;1.22;98.03
34297;BME280;20564;42.902;25.336;2023-01-30T09:33:08;97370.84;;;1.21;98.32
34297;BME280;20564;42.902;25.336;2023-01-30T09:35:35;97364.75;;;1.22;98.08
34297;BME280;20564;42.902;25.336;2023-01-30T09:38:02;97359.94;;;1.32;98.66
34297;BME280;20564;42.902;25.336;2023-01-30T09:40:31;97356.72;;;1.27;95.96
34297;BME280;20564;42.902;25.336;2023-01-30T09:55:58;97324.16;;;1.54;98.37
34297;BME280;20564;42.902;25.336;2023-01-30T09:58:32;97329.56;;;1.50;94.19
34297;BME280;20564;42.902;25.336;2023-01-30T10:01:09;97317.94;;;1.41;96.46
34297;BME280;20564;42.902;25.336;2023-01-30T10:06:35;97302.53;;;1.38;96.16
34297;BME280;20564;42.902;25.336;2023-01-30T10:09:14;97305.56;;;1.46;96.93
34297;BME280;20564;42.902;25.336;2023-01-30T10:12:14;97308.59;;;1.54;94.75
34297;BME280;20564;42.902;25.336;2023-01-30T10:17:50;97300.94;;;1.68;97.44
34297;BME280;20564;42.902;25.336;2023-01-30T10:20:42;97285.34;;;1.68;95.08
34297;BME280;20564;42.902;25.336;2023-01-30T10:26:08;97272.13;;;1.57;94.41
34297;BME280;20564;42.902;25.336;2023-01-30T10:28:41;97271.63;;;1.66;94.07
34297;BME280;20564;42.902;25.336;2023-01-30T10:31:17;97272.44;;;1.67;93.39
34297;BME280;20564;42.902;25.336;2023-01-30T10:36:33;97258.91;;;1.78;95.67
34297;BME280;20564;42.902;25.336;2023-01-30T10:39:17;97237.97;;;1.81;94.13
34297;BME280;20564;42.902;25.336;2023-01-30T10:41:53;97243.91;;;1.83;92.28
34297;BME280;20564;42.902;25.336;2023-01-30T10:44:22;97241.81;;;1.74;91.60
34297;BME280;20564;42.902;25.336;2023-01-30T10:47:13;97233.78;;;1.62;92.66
34297;BME280;20564;42.902;25.336;2023-01-30T10:49:53;97226.84;;;1.63;93.06
34297;BME280;20564;42.902;25.336;2023-01-30T11:01:12;97211.44;;;1.44;94.95
34297;BME280;20564;42.902;25.336;2023-01-30T11:03:47;97201.91;;;1.44;94.87
34297;BME280;20564;42.902;25.336;2023-01-30T11:06:21;97200.00;;;1.48;95.07
34297;BME280;20564;42.902;25.336;2023-01-30T11:08:53;97189.03;;;1.43;92.35
34297;BME280;20564;42.902;25.336;2023-01-30T11:13:50;97192.97;;;1.34;94.82
34297;BME280;20564;42.902;25.336;2023-01-30T11:16:26;97182.50;;;1.36;95.89
34297;BME280;20564;42.902;25.336;2023-01-30T11:18:53;97173.38;;;1.44;95.05
34297;BME280;20564;42.902;25.336;2023-01-30T11:21:52;97162.69;;;1.51;93.38
34297;BME280;20564;42.902;25.336;2023-01-30T11:24:23;97157.50;;;1.51;92.37
34297;BME280;20564;42.902;25.336;2023-01-30T11:26:55;97157.41;;;1.52;91.10
34297;BME280;20564;42.902;25.336;2023-01-30T11:29:37;97159.06;;;1.53;93.83
34297;BME280;20564;42.902;25.336;2023-01-30T11:32:11;97140.41;;;1.62;93.29
34297;BME280;20564;42.902;25.336;2023-01-30T11:34:41;97144.00;;;1.76;94.06
34297;BME280;20564;42.902;25.336;2023-01-30T11:37:28;97123.97;;;1.78;92.21
34297;BME280;20564;42.902;25.336;2023-01-30T11:39:56;97128.44;;;1.90;92.23
34297;BME280;20564;42.902;25.336;2023-01-30T11:42:30;97121.97;;;1.97;91.72
34297;BME280;20564;42.902;25.336;2023-01-30T11:44:58;97117.72;;;1.96;91.16
34297;BME280;20564;42.902;25.336;2023-01-30T11:48:03;97101.19;;;1.97;90.25
34297;BME280;20564;42.902;25.336;2023-01-30T11:50:42;97102.16;;;2.10;90.71
34297;BME280;20564;42.902;25.336;2023-01-30T11:53:36;97099.91;;;2.04;88.93
34297;BME280;20564;42.902;25.336;2023-01-30T11:56:27;97100.31;;;1.98;89.24
34297;BME280;20564;42.902;25.336;2023-01-30T11:58:59;97083.59;;;1.88;90.13
34297;BME280;20564;42.902;25.336;2023-01-30T12:01:29;97083.97;;;1.96;90.73
34297;BME280;20564;42.902;25.336;2023-01-30T12:03:57;97083.78;;;1.99;88.57
34297;BME280;20564;42.902;25.336;2023-01-30T12:06:28;97085.25;;;1.89;88.60
34297;BME280;20564;42.902;25.336;2023-01-30T12:08:56;97068.75;;;1.76;89.37
34297;BME280;20564;42.902;25.336;2023-01-30T12:11:25;97074.59;;;1.79;91.98
34297;BME280;20564;42.902;25.336;2023-01-30T12:14:15;97073.38;;;1.85;91.55
34297;BME280;20564;42.902;25.336;2023-01-30T12:17:04;97071.53;;;1.87;90.48
34297;BME280;20564;42.902;25.336;2023-01-30T12:25:38;97052.28;;;1.91;89.22
34297;BME280;20564;42.902;25.336;2023-01-30T12:33:49;97050.41;;;1.93;88.39
34297;BME280;20564;42.902;25.336;2023-01-30T12:38:55;97041.78;;;1.92;89.94
34297;BME280;20564;42.902;25.336;2023-01-30T12:41:47;97031.69;;;1.88;90.06
34297;BME280;20564;42.902;25.336;2023-01-30T12:58:53;97029.28;;;1.99;89.23
34297;BME280;20564;42.902;25.336;2023-01-30T13:07:17;97014.63;;;1.84;88.07
34297;BME280;20564;42.902;25.336;2023-01-30T13:11:02;97022.25;;;1.87;89.41
34297;BME280;20564;42.902;25.336;2023-01-30T13:21:48;97006.69;;;2.01;87.78
34297;BME280;20564;42.902;25.336;2023-01-30T13:24:24;97000.56;;;2.02;88.65
34297;BME280;20564;42.902;25.336;2023-01-30T13:26:57;96993.69;;;2.01;87.36
34297;BME280;20564;42.902;25.336;2023-01-30T13:29:33;96994.25;;;1.92;87.55
34297;BME280;20564;42.902;25.336;2023-01-30T13:32:05;96998.78;;;1.88;86.56
34297;BME280;20564;42.902;25.336;2023-01-30T13:34:43;96993.47;;;1.90;86.76
34297;BME280;20564;42.902;25.336;2023-01-30T13:37:13;96982.00;;;1.80;87.10
34297;BME280;20564;42.902;25.336;2023-01-30T13:39:46;96989.59;;;1.83;87.51
34297;BME280;20564;42.902;25.336;2023-01-30T13:42:39;96989.03;;;1.78;86.90
34297;BME280;20564;42.902;25.336;2023-01-30T13:45:16;96982.53;;;1.71;87.90
34297;BME280;20564;42.902;25.336;2023-01-30T13:56:39;96973.38;;;1.79;89.39
34297;BME280;20564;42.902;25.336;2023-01-30T14:07:38;96963.09;;;1.78;89.83
34297;BME280;20564;42.902;25.336;2023-01-30T14:18:03;96964.19;;;1.59;89.29
34297;BME280;20564;42.902;25.336;2023-01-30T14:20:36;96964.94;;;1.61;89.17
34297;BME280;20564;42.902;25.336;2023-01-30T14:25:51;96948.94;;;1.39;89.09
34297;BME280;20564;42.902;25.336;2023-01-30T14:38:29;96945.63;;;1.37;90.84
34297;BME280;20564;42.902;25.336;2023-01-30T14:57:40;96947.38;;;1.36;93.11
34297;BME280;20564;42.902;25.336;2023-01-30T15:00:03;96942.47;;;1.32;92.20
34297;BME280;20564;42.902;25.336;2023-01-30T15:02:51;96928.19;;;1.25;92.04
34297;BME280;20564;42.902;25.336;2023-01-30T15:05:24;96936.53;;;1.30;93.43
34297;BME280;20564;42.902;25.336;2023-01-30T15:31:58;96936.75;;;1.11;89.92
34297;BME280;20564;42.902;25.336;2023-01-30T15:34:30;96938.78;;;1.06;91.04
34297;BME280;20564;42.902;25.336;2023-01-30T15:36:59;96928.50;;;1.04;92.89
34297;BME280;20564;42.902;25.336;2023-01-30T15:39:27;96932.09;;;1.02;93.58
34297;BME280;20564;42.902;25.336;2023-01-30T15:42:03;96938.09;;;1.02;94.57
34297;BME280;20564;42.902;25.336;2023-01-30T15:45:00;96926.25;;;0.98;94.62
34297;BME280;20564;42.902;25.336;2023-01-30T15:47:36;96930.44;;;1.01;95.46
34297;BME280;20564;42.902;25.336;2023-01-30T15:50:11;96929.78;;;0.97;95.94
34297;BME280;20564;42.902;25.336;2023-01-30T15:52:45;96930.78;;;0.94;96.38
34297;BME280;20564;42.902;25.336;2023-01-30T15:55:27;96938.53;;;0.94;97.66
34297;BME280;20564;42.902;25.336;2023-01-30T15:58:00;96933.47;;;0.93;97.54
34297;BME280;20564;42.902;25.336;2023-01-30T16:00:35;96930.88;;;0.93;98.50
34297;BME280;20564;42.902;25.336;2023-01-30T16:03:04;96922.09;;;0.95;98.93
34297;BME280;20564;42.902;25.336;2023-01-30T16:05:31;96919.56;;;0.94;98.17
34297;BME280;20564;42.902;25.336;2023-01-30T16:08:11;96916.44;;;0.89;98.64
34297;BME280;20564;42.902;25.336;2023-01-30T16:10:46;96918.09;;;0.90;99.24
34297;BME280;20564;42.902;25.336;2023-01-30T16:13:17;96924.75;;;0.94;99.85
34297;BME280;20564;42.902;25.336;2023-01-30T16:15:57;96919.75;;;0.91;98.80
34297;BME280;20564;42.902;25.336;2023-01-30T16:18:40;96912.72;;;0.93;98.45
34297;BME280;20564;42.902;25.336;2023-01-30T16:21:23;96907.56;;;0.93;95.97
34297;BME280;20564;42.902;25.336;2023-01-30T16:23:58;96898.56;;;0.84;96.66
34297;BME280;20564;42.902;25.336;2023-01-30T16:26:31;96895.38;;;0.79;96.00
34297;BME280;20564;42.902;25.336;2023-01-30T16:29:10;96894.38;;;0.82;96.63
34297;BME280;20564;42.902;25.336;2023-01-30T16:31:43;96892.88;;;0.78;97.60
34297;BME280;20564;42.902;25.336;2023-01-30T16:34:34;96889.28;;;0.80;98.58
34297;BME280;20564;42.902;25.336;2023-01-30T16:39:43;96877.91;;;0.83;98.98
34297;BME280;20564;42.902;25.336;2023-01-30T16:42:27;96876.81;;;0.87;97.47
34297;BME280;20564;42.902;25.336;2023-01-30T16:47:43;96887.16;;;0.87;97.83
34297;BME280;20564;42.902;25.336;2023-01-30T16:50:22;96874.50;;;0.82;98.13
34297;BME280;20564;42.902;25.336;2023-01-30T16:52:53;96876.97;;;0.84;98.63
34297;BME280;20564;42.902;25.336;2023-01-30T16:55:25;96870.72;;;0.88;99.42
34297;BME280;20564;42.902;25.336;2023-01-30T16:58:00;96861.75;;;0.93;100.00
34297;BME280;20564;42.902;25.336;2023-01-30T17:00:51;96863.69;;;0.90;100.00
34297;BME280;20564;42.902;25.336;2023-01-30T17:03:24;96854.25;;;0.89;100.00
34297;BME280;20564;42.902;25.336;2023-01-30T17:06:02;96855.25;;;0.86;100.00